sensor_id;sensor_type;location;lat;lon;timestamp;pressure;altitude;pressure_sealevel;temperature;humidity
72285;BME280;60220;53.552;10.092;2023-02-28T00:01:34;102950.09;;;5.03;55.12
72285;BME280;60220;53.552;10.092;2023-02-28T00:04:01;102945.41;;;5.15;54.71
72285;BME280;60220;53.552;10.092;2023-02-28T00:06:28;102942.66;;;5.31;53.89
72285;BME280;60220;53.552;10.092;2023-02-28T00:08:55;102943.91;;;5.01;54.38
72285;BME280;60220;53.552;10.092;2023-02-28T00:11:25;102947.63;;;4.87;54.20
72285;BME280;60220;53.552;10.092;2023-02-28T00:13:52;102946.34;;;4.59;55.20
72285;BME280;60220;53.552;10.092;2023-02-28T00:16:20;102939.91;;;4.70;56.43
72285;BME280;60220;53.552;10.092;2023-02-28T00:18:50;102944.00;;;5.02;54.69
72285;BME280;60220;53.552;10.092;2023-02-28T00:21:17;102949.38;;;5.26;53.74
72285;BME280;60220;53.552;10.092;2023-02-28T00:23:44;102951.16;;;4.89;54.76
72285;BME280;60220;53.552;10.092;2023-02-28T00:26:11;102944.72;;;5.00;55.06
72285;BME280;60220;53.552;10.092;2023-02-28T00:28:39;102941.41;;;5.84;52.77
72285;BME280;60220;53.552;10.092;2023-02-28T00:31:06;102956.31;;;5.26;54.09
72285;BME280;60220;53.552;10.092;2023-02-28T00:33:32;102949.50;;;5.29;54.23
72285;BME280;60220;53.552;10.092;2023-02-28T00:36:08;102943.06;;;6.01;51.63
72285;BME280;60220;53.552;10.092;2023-02-28T00:38:35;102935.09;;;5.98;51.66
72285;BME280;60220;53.552;10.092;2023-02-28T00:41:04;102947.38;;;5.40;53.14
72285;BME280;60220;53.552;10.092;2023-02-28T00:43:32;102951.63;;;5.38;52.89
72285;BME280;60220;53.552;10.092;2023-02-28T00:46:01;102953.56;;;5.23;52.96
72285;BME280;60220;53.552;10.092;2023-02-28T00:48:30;102954.81;;;5.11;53.36
72285;BME280;60220;53.552;10.092;2023-02-28T00:50:57;102946.09;;;4.92;53.65
72285;BME280;60220;53.552;10.092;2023-02-28T00:53:23;102947.44;;;4.84;54.18
72285;BME280;60220;53.552;10.092;2023-02-28T00:55:50;102944.84;;;4.64;55.22
72285;BME280;60220;53.552;10.092;2023-02-28T00:58:16;102948.88;;;4.58;55.26
72285;BME280;60220;53.552;10.092;2023-02-28T01:00:45;102948.13;;;4.60;55.30
72285;BME280;60220;53.552;10.092;2023-02-28T01:03:15;102958.53;;;4.60;55.33
72285;BME280;60220;53.552;10.092;2023-02-28T01:05:42;102958.41;;;4.57;55.45
72285;BME280;60220;53.552;10.092;2023-02-28T01:08:09;102968.69;;;5.31;53.66
72285;BME280;60220;53.552;10.092;2023-02-28T01:10:38;102957.72;;;4.81;55.31
72285;BME280;60220;53.552;10.092;2023-02-28T01:13:05;102968.44;;;4.87;55.09
72285;BME280;60220;53.552;10.092;2023-02-28T01:15:32;102965.94;;;4.70;55.42
72285;BME280;60220;53.552;10.092;2023-02-28T01:17:59;102970.72;;;5.17;54.23
72285;BME280;60220;53.552;10.092;2023-02-28T01:20:27;102975.63;;;5.11;53.61
72285;BME280;60220;53.552;10.092;2023-02-28T01:22:54;102971.56;;;4.80;54.93
72285;BME280;60220;53.552;10.092;2023-02-28T01:25:21;102976.59;;;4.57;55.60
72285;BME280;60220;53.552;10.092;2023-02-28T01:27:47;102971.72;;;4.83;55.16
72285;BME280;60220;53.552;10.092;2023-02-28T01:30:16;102963.16;;;4.48;55.87
72285;BME280;60220;53.552;10.092;2023-02-28T01:32:43;102968.75;;;5.52;53.95
72285;BME280;60220;53.552;10.092;2023-02-28T01:35:10;102966.84;;;5.09;53.93
72285;BME280;60220;53.552;10.092;2023-02-28T01:37:38;102967.72;;;4.71;54.61
72285;BME280;60220;53.552;10.092;2023-02-28T01:40:06;102972.81;;;5.07;53.74
72285;BME280;60220;53.552;10.092;2023-02-28T01:42:32;102966.28;;;4.41;55.80
72285;BME280;60220;53.552;10.092;2023-02-28T01:45:14;102960.91;;;4.56;56.29
72285;BME280;60220;53.552;10.092;2023-02-28T01:47:43;102963.25;;;4.32;57.27
72285;BME280;60220;53.552;10.092;2023-02-28T01:50:14;102962.34;;;4.86;54.97
72285;BME280;60220;53.552;10.092;2023-02-28T01:52:45;102965.03;;;4.70;54.31
72285;BME280;60220;53.552;10.092;2023-02-28T01:55:15;102957.41;;;4.92;54.73
72285;BME280;60220;53.552;10.092;2023-02-28T01:57:50;102952.94;;;4.90;55.69
72285;BME280;60220;53.552;10.092;2023-02-28T02:00:20;102958.38;;;4.03;57.59
72285;BME280;60220;53.552;10.092;2023-02-28T02:02:49;102958.59;;;4.07;57.78
72285;BME280;60220;53.552;10.092;2023-02-28T02:05:21;102958.50;;;5.16;54.67
72285;BME280;60220;53.552;10.092;2023-02-28T02:07:52;102956.31;;;4.50;55.79
72285;BME280;60220;53.552;10.092;2023-02-28T02:10:21;102956.41;;;4.34;56.77
72285;BME280;60220;53.552;10.092;2023-02-28T02:13:21;102953.78;;;4.52;55.74
72285;BME280;60220;53.552;10.092;2023-02-28T02:15:59;102961.78;;;4.02;56.93
72285;BME280;60220;53.552;10.092;2023-02-28T02:18:32;102946.69;;;4.12;57.31
72285;BME280;60220;53.552;10.092;2023-02-28T02:21:20;102957.03;;;3.59;59.43
72285;BME280;60220;53.552;10.092;2023-02-28T02:24:04;102953.50;;;3.75;58.14
72285;BME280;60220;53.552;10.092;2023-02-28T02:26:55;102959.50;;;4.62;56.77
72285;BME280;60220;53.552;10.092;2023-02-28T02:29:47;102949.91;;;4.61;56.35
72285;BME280;60220;53.552;10.092;2023-02-28T02:32:23;102942.97;;;4.25;56.60
72285;BME280;60220;53.552;10.092;2023-02-28T02:35:05;102941.50;;;4.12;57.09
72285;BME280;60220;53.552;10.092;2023-02-28T02:37:43;102947.66;;;3.45;59.71
72285;BME280;60220;53.552;10.092;2023-02-28T02:40:14;102951.91;;;3.27;60.53
72285;BME280;60220;53.552;10.092;2023-02-28T02:42:49;102951.41;;;2.85;61.63
72285;BME280;60220;53.552;10.092;2023-02-28T02:45:22;102955.63;;;2.67;62.08
72285;BME280;60220;53.552;10.092;2023-02-28T02:47:51;102949.78;;;2.71;62.01
72285;BME280;60220;53.552;10.092;2023-02-28T02:50:24;102952.38;;;2.71;61.96
72285;BME280;60220;53.552;10.092;2023-02-28T02:52:56;102951.25;;;2.66;62.45
72285;BME280;60220;53.552;10.092;2023-02-28T02:55:28;102948.09;;;2.10;64.01
72285;BME280;60220;53.552;10.092;2023-02-28T02:57:59;102959.75;;;2.80;63.35
72285;BME280;60220;53.552;10.092;2023-02-28T03:00:33;102942.84;;;2.39;64.39
72285;BME280;60220;53.552;10.092;2023-02-28T03:03:02;102945.03;;;2.79;62.96
72285;BME280;60220;53.552;10.092;2023-02-28T03:05:35;102949.63;;;2.84;62.91
72285;BME280;60220;53.552;10.092;2023-02-28T03:08:03;102949.94;;;2.74;63.33
72285;BME280;60220;53.552;10.092;2023-02-28T03:10:37;102941.16;;;2.40;64.75
72285;BME280;60220;53.552;10.092;2023-02-28T03:13:31;102943.47;;;2.66;64.67
72285;BME280;60220;53.552;10.092;2023-02-28T03:19:03;102944.97;;;2.93;63.55
72285;BME280;60220;53.552;10.092;2023-02-28T03:21:38;102953.53;;;2.92;64.02
72285;BME280;60220;53.552;10.092;2023-02-28T03:24:12;102948.00;;;2.54;64.91
72285;BME280;60220;53.552;10.092;2023-02-28T03:26:50;102955.13;;;2.58;65.64
72285;BME280;60220;53.552;10.092;2023-02-28T03:29:23;102958.25;;;2.83;65.10
72285;BME280;60220;53.552;10.092;2023-02-28T03:32:00;102952.91;;;2.49;64.63
72285;BME280;60220;53.552;10.092;2023-02-28T03:34:32;102952.06;;;2.34;66.13
72285;BME280;60220;53.552;10.092;2023-02-28T03:37:05;102957.53;;;2.39;65.84
72285;BME280;60220;53.552;10.092;2023-02-28T03:39:38;102956.19;;;2.31;66.09
72285;BME280;60220;53.552;10.092;2023-02-28T03:42:09;102959.28;;;2.40;65.59
72285;BME280;60220;53.552;10.092;2023-02-28T03:44:41;102957.25;;;1.89;67.45
72285;BME280;60220;53.552;10.092;2023-02-28T03:47:13;102960.78;;;2.05;67.16
72285;BME280;60220;53.552;10.092;2023-02-28T03:49:45;102961.56;;;2.34;65.86
72285;BME280;60220;53.552;10.092;2023-02-28T03:52:14;102956.88;;;2.12;66.32
72285;BME280;60220;53.552;10.092;2023-02-28T03:54:43;102959.47;;;2.43;65.81
72285;BME280;60220;53.552;10.092;2023-02-28T03:57:16;102959.22;;;2.38;66.12
72285;BME280;60220;53.552;10.092;2023-02-28T03:59:48;102969.22;;;1.72;67.90
72285;BME280;60220;53.552;10.092;2023-02-28T04:02:19;102969.31;;;2.03;67.21
72285;BME280;60220;53.552;10.092;2023-02-28T04:04:45;102974.41;;;1.72;69.55
72285;BME280;60220;53.552;10.092;2023-02-28T04:07:17;102978.31;;;1.80;72.95
72285;BME280;60220;53.552;10.092;2023-02-28T04:09:44;102975.56;;;1.62;70.95
72285;BME280;60220;53.552;10.092;2023-02-28T04:12:12;102956.97;;;2.13;67.57
72285;BME280;60220;53.552;10.092;2023-02-28T04:14:39;102965.59;;;2.29;66.63
72285;BME280;60220;53.552;10.092;2023-02-28T04:17:06;102965.97;;;2.05;66.27
72285;BME280;60220;53.552;10.092;2023-02-28T04:19:32;102969.41;;;1.60;68.66
72285;BME280;60220;53.552;10.092;2023-02-28T04:21:59;102968.31;;;1.86;68.61
72285;BME280;60220;53.552;10.092;2023-02-28T04:24:28;102968.63;;;2.22;68.16
72285;BME280;60220;53.552;10.092;2023-02-28T04:26:58;102967.25;;;1.83;67.77
72285;BME280;60220;53.552;10.092;2023-02-28T04:29:27;102961.47;;;2.32;66.74
72285;BME280;60220;53.552;10.092;2023-02-28T04:31:54;102954.75;;;2.36;66.29
72285;BME280;60220;53.552;10.092;2023-02-28T04:34:26;102970.28;;;1.61;67.27
72285;BME280;60220;53.552;10.092;2023-02-28T04:36:53;102967.25;;;1.39;68.37
72285;BME280;60220;53.552;10.092;2023-02-28T04:39:20;102967.44;;;1.71;67.81
72285;BME280;60220;53.552;10.092;2023-02-28T04:41:49;102978.19;;;1.35;69.17
72285;BME280;60220;53.552;10.092;2023-02-28T04:44:18;102975.84;;;1.67;68.41
72285;BME280;60220;53.552;10.092;2023-02-28T04:46:49;102969.59;;;1.78;67.90
72285;BME280;60220;53.552;10.092;2023-02-28T04:49:15;102968.56;;;2.51;65.71
72285;BME280;60220;53.552;10.092;2023-02-28T04:51:42;102962.16;;;2.30;65.36
72285;BME280;60220;53.552;10.092;2023-02-28T04:54:09;102974.78;;;1.78;66.97
72285;BME280;60220;53.552;10.092;2023-02-28T04:56:35;102970.25;;;1.32;69.56
72285;BME280;60220;53.552;10.092;2023-02-28T04:59:03;102976.91;;;1.13;71.72
72285;BME280;60220;53.552;10.092;2023-02-28T05:01:32;102975.28;;;1.87;69.23
72285;BME280;60220;53.552;10.092;2023-02-28T05:04:00;102982.13;;;1.00;69.29
72285;BME280;60220;53.552;10.092;2023-02-28T05:06:30;102975.72;;;0.94;70.59
72285;BME280;60220;53.552;10.092;2023-02-28T05:08:57;102990.09;;;1.46;69.08
72285;BME280;60220;53.552;10.092;2023-02-28T05:11:25;102983.44;;;1.79;68.97
72285;BME280;60220;53.552;10.092;2023-02-28T05:13:56;102989.19;;;1.45;69.33
72285;BME280;60220;53.552;10.092;2023-02-28T05:16:27;102991.81;;;1.17;70.66
72285;BME280;60220;53.552;10.092;2023-02-28T05:18:54;102990.09;;;1.46;69.24
72285;BME280;60220;53.552;10.092;2023-02-28T05:21:24;102993.59;;;0.91;70.62
72285;BME280;60220;53.552;10.092;2023-02-28T05:23:52;102990.69;;;1.27;69.93
72285;BME280;60220;53.552;10.092;2023-02-28T05:26:18;102992.50;;;1.15;70.66
72285;BME280;60220;53.552;10.092;2023-02-28T05:28:45;102986.75;;;0.91;70.82
72285;BME280;60220;53.552;10.092;2023-02-28T05:31:12;102994.97;;;0.99;71.19
72285;BME280;60220;53.552;10.092;2023-02-28T05:33:40;102990.88;;;1.02;71.25
72285;BME280;60220;53.552;10.092;2023-02-28T05:36:09;102992.13;;;0.94;71.43
72285;BME280;60220;53.552;10.092;2023-02-28T05:38:36;102991.00;;;0.91;71.81
72285;BME280;60220;53.552;10.092;2023-02-28T05:41:05;102982.91;;;1.27;70.33
72285;BME280;60220;53.552;10.092;2023-02-28T05:43:35;102988.16;;;0.86;71.87
72285;BME280;60220;53.552;10.092;2023-02-28T05:46:05;102989.31;;;1.04;70.76
72285;BME280;60220;53.552;10.092;2023-02-28T05:48:33;102979.59;;;0.87;73.54
72285;BME280;60220;53.552;10.092;2023-02-28T05:51:04;102991.75;;;0.75;73.42
72285;BME280;60220;53.552;10.092;2023-02-28T05:53:34;102994.38;;;1.03;72.77
72285;BME280;60220;53.552;10.092;2023-02-28T05:56:01;103001.19;;;0.88;72.41
72285;BME280;60220;53.552;10.092;2023-02-28T05:58:29;102998.50;;;0.86;72.62
72285;BME280;60220;53.552;10.092;2023-02-28T06:01:00;102997.75;;;0.74;72.77
72285;BME280;60220;53.552;10.092;2023-02-28T06:03:27;103002.56;;;1.10;72.04
72285;BME280;60220;53.552;10.092;2023-02-28T06:05:57;102995.69;;;0.96;72.06
72285;BME280;60220;53.552;10.092;2023-02-28T06:08:27;103004.00;;;1.05;71.80
72285;BME280;60220;53.552;10.092;2023-02-28T06:10:53;103008.97;;;0.74;72.01
72285;BME280;60220;53.552;10.092;2023-02-28T06:13:20;103003.53;;;0.98;71.83
72285;BME280;60220;53.552;10.092;2023-02-28T06:15:46;103015.97;;;0.90;72.34
72285;BME280;60220;53.552;10.092;2023-02-28T06:18:16;103010.28;;;0.68;73.08
72285;BME280;60220;53.552;10.092;2023-02-28T06:20:42;103014.28;;;0.23;75.09
72285;BME280;60220;53.552;10.092;2023-02-28T06:23:09;103010.31;;;0.55;74.53
72285;BME280;60220;53.552;10.092;2023-02-28T06:25:37;103009.94;;;0.90;72.99
72285;BME280;60220;53.552;10.092;2023-02-28T06:28:04;103018.34;;;1.28;71.43
72285;BME280;60220;53.552;10.092;2023-02-28T06:30:31;103021.28;;;0.78;72.15
72285;BME280;60220;53.552;10.092;2023-02-28T06:32:59;103014.22;;;0.89;73.09
72285;BME280;60220;53.552;10.092;2023-02-28T06:35:25;103019.59;;;0.66;72.95
72285;BME280;60220;53.552;10.092;2023-02-28T06:37:52;103016.81;;;0.76;73.01
72285;BME280;60220;53.552;10.092;2023-02-28T06:40:18;103022.53;;;0.98;72.47
72285;BME280;60220;53.552;10.092;2023-02-28T06:42:47;103026.31;;;0.90;72.55
72285;BME280;60220;53.552;10.092;2023-02-28T06:45:16;103025.31;;;1.29;71.37
72285;BME280;60220;53.552;10.092;2023-02-28T06:47:45;103025.44;;;1.60;69.92
72285;BME280;60220;53.552;10.092;2023-02-28T06:50:17;103028.84;;;1.59;69.92
72285;BME280;60220;53.552;10.092;2023-02-28T06:52:45;103022.75;;;1.44;69.92
72285;BME280;60220;53.552;10.092;2023-02-28T06:55:14;103033.53;;;1.79;69.83
72285;BME280;60220;53.552;10.092;2023-02-28T06:57:42;103029.41;;;1.83;69.45
72285;BME280;60220;53.552;10.092;2023-02-28T07:00:14;103033.69;;;1.82;69.31
72285;BME280;60220;53.552;10.092;2023-02-28T07:02:40;103036.78;;;2.35;68.36
72285;BME280;60220;53.552;10.092;2023-02-28T07:05:09;103030.97;;;2.54;67.95
72285;BME280;60220;53.552;10.092;2023-02-28T07:07:36;103029.75;;;2.33;68.43
72285;BME280;60220;53.552;10.092;2023-02-28T07:10:06;103035.28;;;2.09;68.57
72285;BME280;60220;53.552;10.092;2023-02-28T07:12:33;103030.91;;;2.69;67.47
72285;BME280;60220;53.552;10.092;2023-02-28T07:14:59;103034.94;;;2.03;68.01
72285;BME280;60220;53.552;10.092;2023-02-28T07:17:27;103035.28;;;1.80;69.16
72285;BME280;60220;53.552;10.092;2023-02-28T07:19:54;103030.78;;;2.51;67.78
72285;BME280;60220;53.552;10.092;2023-02-28T07:22:21;103041.81;;;1.88;68.29
72285;BME280;60220;53.552;10.092;2023-02-28T07:24:48;103043.69;;;2.05;69.21
72285;BME280;60220;53.552;10.092;2023-02-28T07:27:14;103044.56;;;1.62;70.05
72285;BME280;60220;53.552;10.092;2023-02-28T07:29:48;103034.94;;;2.03;70.26
72285;BME280;60220;53.552;10.092;2023-02-28T07:32:15;103030.22;;;2.87;67.44
72285;BME280;60220;53.552;10.092;2023-02-28T07:34:43;103034.59;;;1.97;69.01
72285;BME280;60220;53.552;10.092;2023-02-28T07:37:10;103032.00;;;1.68;70.98
72285;BME280;60220;53.552;10.092;2023-02-28T07:39:39;103035.03;;;1.90;69.89
72285;BME280;60220;53.552;10.092;2023-02-28T07:42:07;103027.94;;;2.77;68.30
72285;BME280;60220;53.552;10.092;2023-02-28T07:44:35;103034.53;;;3.03;67.73
72285;BME280;60220;53.552;10.092;2023-02-28T07:47:06;103037.59;;;2.49;67.51
72285;BME280;60220;53.552;10.092;2023-02-28T07:49:32;103042.00;;;2.66;66.07
72285;BME280;60220;53.552;10.092;2023-02-28T07:52:03;103052.09;;;2.16;66.72
72285;BME280;60220;53.552;10.092;2023-02-28T07:54:30;103049.78;;;2.66;67.23
72285;BME280;60220;53.552;10.092;2023-02-28T07:56:56;103042.88;;;3.78;64.32
72285;BME280;60220;53.552;10.092;2023-02-28T07:59:23;103047.69;;;2.75;65.86
72285;BME280;60220;53.552;10.092;2023-02-28T08:01:50;103048.41;;;3.36;65.71
72285;BME280;60220;53.552;10.092;2023-02-28T08:04:17;103045.59;;;3.47;63.69
72285;BME280;60220;53.552;10.092;2023-02-28T08:06:46;103048.69;;;2.77;66.00
72285;BME280;60220;53.552;10.092;2023-02-28T08:09:15;103050.13;;;3.68;63.97
72285;BME280;60220;53.552;10.092;2023-02-28T08:11:44;103043.44;;;4.24;62.05
72285;BME280;60220;53.552;10.092;2023-02-28T08:14:10;103042.88;;;3.78;61.90
72285;BME280;60220;53.552;10.092;2023-02-28T08:16:37;103042.19;;;4.34;62.30
72285;BME280;60220;53.552;10.092;2023-02-28T08:19:06;103050.91;;;3.67;60.56
72285;BME280;60220;53.552;10.092;2023-02-28T08:21:33;103059.75;;;3.86;62.08
72285;BME280;60220;53.552;10.092;2023-02-28T08:23:59;103052.16;;;4.25;61.43
72285;BME280;60220;53.552;10.092;2023-02-28T08:26:27;103052.97;;;5.14;60.75
72285;BME280;60220;53.552;10.092;2023-02-28T08:28:54;103057.03;;;5.27;58.85
72285;BME280;60220;53.552;10.092;2023-02-28T08:31:21;103058.38;;;4.28;60.59
72285;BME280;60220;53.552;10.092;2023-02-28T08:33:48;103056.13;;;4.01;62.41
72285;BME280;60220;53.552;10.092;2023-02-28T08:36:17;103050.44;;;5.15;59.10
72285;BME280;60220;53.552;10.092;2023-02-28T08:38:44;103052.81;;;4.92;59.04
72285;BME280;60220;53.552;10.092;2023-02-28T08:41:12;103050.59;;;6.16;56.57
72285;BME280;60220;53.552;10.092;2023-02-28T08:43:40;103056.34;;;4.94;56.27
72285;BME280;60220;53.552;10.092;2023-02-28T08:46:08;103057.41;;;6.13;56.14
72285;BME280;60220;53.552;10.092;2023-02-28T08:48:37;103053.53;;;5.64;54.98
72285;BME280;60220;53.552;10.092;2023-02-28T08:51:09;103058.06;;;6.29;54.55
72285;BME280;60220;53.552;10.092;2023-02-28T08:53:36;103053.91;;;6.76;53.03
72285;BME280;60220;53.552;10.092;2023-02-28T08:56:05;103057.22;;;6.94;52.48
72285;BME280;60220;53.552;10.092;2023-02-28T08:58:35;103064.78;;;6.88;51.58
72285;BME280;60220;53.552;10.092;2023-02-28T09:01:09;103057.75;;;6.85;50.74
72285;BME280;60220;53.552;10.092;2023-02-28T09:03:37;103061.91;;;5.57;55.40
72285;BME280;60220;53.552;10.092;2023-02-28T09:06:08;103058.09;;;4.75;55.90
72285;BME280;60220;53.552;10.092;2023-02-28T09:08:38;103063.94;;;5.26;55.83
72285;BME280;60220;53.552;10.092;2023-02-28T09:11:05;103067.31;;;4.51;56.37
72285;BME280;60220;53.552;10.092;2023-02-28T09:13:32;103063.91;;;5.84;52.79
72285;BME280;60220;53.552;10.092;2023-02-28T09:16:00;103062.50;;;5.90;52.75
72285;BME280;60220;53.552;10.092;2023-02-28T09:18:29;103062.81;;;6.17;52.87
72285;BME280;60220;53.552;10.092;2023-02-28T09:20:56;103063.75;;;5.60;54.93
72285;BME280;60220;53.552;10.092;2023-02-28T09:23:24;103064.41;;;5.75;52.29
72285;BME280;60220;53.552;10.092;2023-02-28T09:25:53;103074.09;;;5.58;53.54
72285;BME280;60220;53.552;10.092;2023-02-28T09:28:20;103056.91;;;4.69;54.80
72285;BME280;60220;53.552;10.092;2023-02-28T09:30:51;103072.50;;;6.00;52.34
72285;BME280;60220;53.552;10.092;2023-02-28T09:33:18;103064.38;;;6.34;50.80
72285;BME280;60220;53.552;10.092;2023-02-28T09:35:47;103067.69;;;6.51;50.57
72285;BME280;60220;53.552;10.092;2023-02-28T09:38:15;103067.13;;;7.03;49.91
72285;BME280;60220;53.552;10.092;2023-02-28T09:40:49;103069.72;;;5.96;50.50
72285;BME280;60220;53.552;10.092;2023-02-28T09:43:18;103070.47;;;6.35;50.57
72285;BME280;60220;53.552;10.092;2023-02-28T09:45:48;103073.94;;;5.17;52.66
72285;BME280;60220;53.552;10.092;2023-02-28T09:48:21;103080.41;;;6.02;50.03
72285;BME280;60220;53.552;10.092;2023-02-28T09:50:50;103071.53;;;6.81;48.35
72285;BME280;60220;53.552;10.092;2023-02-28T09:53:22;103076.34;;;6.29;46.80
72285;BME280;60220;53.552;10.092;2023-02-28T09:55:55;103069.16;;;6.44;45.99
72285;BME280;60220;53.552;10.092;2023-02-28T09:58:27;103080.09;;;6.36;46.38
72285;BME280;60220;53.552;10.092;2023-02-28T10:01:00;103076.88;;;5.05;47.66
72285;BME280;60220;53.552;10.092;2023-02-28T10:03:32;103084.78;;;5.64;47.45
72285;BME280;60220;53.552;10.092;2023-02-28T10:06:10;103080.75;;;4.96;46.87
72285;BME280;60220;53.552;10.092;2023-02-28T10:08:40;103086.63;;;5.86;47.56
72285;BME280;60220;53.552;10.092;2023-02-28T10:11:13;103074.25;;;6.21;46.37
72285;BME280;60220;53.552;10.092;2023-02-28T10:13:50;103082.03;;;5.81;45.25
72285;BME280;60220;53.552;10.092;2023-02-28T10:16:24;103075.38;;;6.07;45.01
72285;BME280;60220;53.552;10.092;2023-02-28T10:18:56;103064.72;;;7.07;44.01
72285;BME280;60220;53.552;10.092;2023-02-28T10:21:29;103074.97;;;7.49;43.23
72285;BME280;60220;53.552;10.092;2023-02-28T10:24:03;103071.81;;;8.06;41.12
72285;BME280;60220;53.552;10.092;2023-02-28T10:26:31;103067.41;;;7.80;42.53
72285;BME280;60220;53.552;10.092;2023-02-28T10:28:59;103066.81;;;6.73;43.12
72285;BME280;60220;53.552;10.092;2023-02-28T10:31:28;103065.72;;;6.68;43.70
72285;BME280;60220;53.552;10.092;2023-02-28T10:33:55;103074.94;;;5.57;46.95
72285;BME280;60220;53.552;10.092;2023-02-28T10:36:23;103071.41;;;6.58;45.20
72285;BME280;60220;53.552;10.092;2023-02-28T10:38:53;103072.72;;;7.12;43.20
72285;BME280;60220;53.552;10.092;2023-02-28T10:41:28;103066.34;;;6.61;44.69
72285;BME280;60220;53.552;10.092;2023-02-28T10:44:14;103059.50;;;7.31;44.15
72285;BME280;60220;53.552;10.092;2023-02-28T10:46:45;103065.91;;;7.87;43.06
72285;BME280;60220;53.552;10.092;2023-02-28T10:49:17;103058.97;;;7.17;42.76
72285;BME280;60220;53.552;10.092;2023-02-28T10:51:47;103066.75;;;7.87;41.62
72285;BME280;60220;53.552;10.092;2023-02-28T10:54:18;103060.28;;;6.62;42.94
72285;BME280;60220;53.552;10.092;2023-02-28T10:56:45;103073.47;;;6.23;44.68
72285;BME280;60220;53.552;10.092;2023-02-28T10:59:29;103065.50;;;6.84;43.30
72285;BME280;60220;53.552;10.092;2023-02-28T11:01:56;103059.44;;;6.63;44.45
72285;BME280;60220;53.552;10.092;2023-02-28T11:04:34;103067.28;;;7.29;41.83
72285;BME280;60220;53.552;10.092;2023-02-28T11:07:05;103067.38;;;7.32;42.36
72285;BME280;60220;53.552;10.092;2023-02-28T11:09:35;103070.50;;;7.00;43.28
72285;BME280;60220;53.552;10.092;2023-02-28T11:12:16;103065.16;;;6.75;43.50
72285;BME280;60220;53.552;10.092;2023-02-28T11:14:48;103065.81;;;6.48;43.22
72285;BME280;60220;53.552;10.092;2023-02-28T11:17:20;103066.28;;;7.26;42.42
72285;BME280;60220;53.552;10.092;2023-02-28T11:19:50;103059.53;;;6.43;43.26
72285;BME280;60220;53.552;10.092;2023-02-28T11:22:24;103062.78;;;6.81;43.48
72285;BME280;60220;53.552;10.092;2023-02-28T11:24:57;103056.03;;;6.43;44.45
72285;BME280;60220;53.552;10.092;2023-02-28T11:27:45;103062.38;;;7.15;41.88
72285;BME280;60220;53.552;10.092;2023-02-28T11:30:28;103058.63;;;7.30;42.33
72285;BME280;60220;53.552;10.092;2023-02-28T11:32:57;103052.34;;;7.25;41.08
72285;BME280;60220;53.552;10.092;2023-02-28T11:35:31;103048.16;;;7.30;41.76
72285;BME280;60220;53.552;10.092;2023-02-28T11:38:00;103048.03;;;7.27;40.51
72285;BME280;60220;53.552;10.092;2023-02-28T11:40:35;103041.69;;;7.68;41.01
72285;BME280;60220;53.552;10.092;2023-02-28T11:43:19;103037.28;;;7.66;40.42
72285;BME280;60220;53.552;10.092;2023-02-28T11:46:01;103038.06;;;8.14;39.85
72285;BME280;60220;53.552;10.092;2023-02-28T11:48:34;103045.38;;;7.50;40.67
72285;BME280;60220;53.552;10.092;2023-02-28T11:51:12;103044.19;;;7.89;39.21
72285;BME280;60220;53.552;10.092;2023-02-28T11:53:57;103034.72;;;7.44;40.05
72285;BME280;60220;53.552;10.092;2023-02-28T11:56:33;103031.94;;;8.13;39.43
72285;BME280;60220;53.552;10.092;2023-02-28T11:59:05;103028.63;;;8.99;38.54
72285;BME280;60220;53.552;10.092;2023-02-28T12:01:48;103031.41;;;8.49;40.10
72285;BME280;60220;53.552;10.092;2023-02-28T12:04:26;103024.72;;;7.56;39.43
72285;BME280;60220;53.552;10.092;2023-02-28T12:07:04;103006.38;;;8.05;39.05
72285;BME280;60220;53.552;10.092;2023-02-28T12:09:46;103017.13;;;8.66;37.50
72285;BME280;60220;53.552;10.092;2023-02-28T12:12:28;103013.47;;;7.34;41.82
72285;BME280;60220;53.552;10.092;2023-02-28T12:15:27;103012.53;;;8.59;40.92
72285;BME280;60220;53.552;10.092;2023-02-28T12:18:08;103004.13;;;8.15;37.87
72285;BME280;60220;53.552;10.092;2023-02-28T12:20:48;103005.69;;;6.68;41.27
72285;BME280;60220;53.552;10.092;2023-02-28T12:23:25;102989.66;;;7.03;40.89
72285;BME280;60220;53.552;10.092;2023-02-28T12:26:03;102988.41;;;8.15;39.28
72285;BME280;60220;53.552;10.092;2023-02-28T12:28:40;102990.78;;;7.33;42.18
72285;BME280;60220;53.552;10.092;2023-02-28T12:31:14;102988.00;;;8.57;40.05
72285;BME280;60220;53.552;10.092;2023-02-28T12:33:46;102982.78;;;8.03;40.95
72285;BME280;60220;53.552;10.092;2023-02-28T12:36:17;102979.84;;;7.69;40.91
72285;BME280;60220;53.552;10.092;2023-02-28T12:38:53;102984.34;;;8.79;38.28
72285;BME280;60220;53.552;10.092;2023-02-28T12:41:25;102977.72;;;8.35;38.77
72285;BME280;60220;53.552;10.092;2023-02-28T12:43:58;102973.78;;;7.95;38.37
72285;BME280;60220;53.552;10.092;2023-02-28T12:46:30;102976.41;;;7.70;39.07
72285;BME280;60220;53.552;10.092;2023-02-28T12:49:02;102970.47;;;7.01;41.41
72285;BME280;60220;53.552;10.092;2023-02-28T12:51:35;102963.44;;;6.54;41.91
72285;BME280;60220;53.552;10.092;2023-02-28T12:54:10;102964.00;;;7.15;41.39
72285;BME280;60220;53.552;10.092;2023-02-28T12:56:44;102946.19;;;7.53;40.53
72285;BME280;60220;53.552;10.092;2023-02-28T12:59:19;102947.56;;;7.18;41.64
72285;BME280;60220;53.552;10.092;2023-02-28T13:02:14;102946.34;;;7.08;41.36
72285;BME280;60220;53.552;10.092;2023-02-28T13:05:01;102945.81;;;7.67;39.88
72285;BME280;60220;53.552;10.092;2023-02-28T13:08:20;102942.94;;;7.60;39.61
72285;BME280;60220;53.552;10.092;2023-02-28T13:10:51;102934.50;;;8.20;38.46
72285;BME280;60220;53.552;10.092;2023-02-28T13:13:20;102939.41;;;8.65;38.50